sensor_id;sensor_type;location;lat;lon;timestamp;pressure;altitude;pressure_sealevel;temperature;humidity
12594;BME280;6362;50.208;9.182;2023-01-29T00:01:58;101153.06;;;-1.09;66.19
12594;BME280;6362;50.208;9.182;2023-01-29T00:04:24;101161.41;;;-1.11;66.34
12594;BME280;6362;50.208;9.182;2023-01-29T00:06:49;101159.66;;;-1.12;66.93
12594;BME280;6362;50.208;9.182;2023-01-29T00:09:15;101168.69;;;-1.17;66.31
12594;BME280;6362;50.208;9.182;2023-01-29T00:11:41;101160.81;;;-1.22;66.04
12594;BME280;6362;50.208;9.182;2023-01-29T00:14:06;101167.75;;;-1.19;65.96
12594;BME280;6362;50.208;9.182;2023-01-29T00:16:32;101170.28;;;-1.19;66.77
12594;BME280;6362;50.208;9.182;2023-01-29T00:18:57;101173.03;;;-1.16;66.63
12594;BME280;6362;50.208;9.182;2023-01-29T00:21:23;101176.56;;;-1.14;66.39
12594;BME280;6362;50.208;9.182;2023-01-29T00:23:49;101171.38;;;-1.16;65.71
12594;BME280;6362;50.208;9.182;2023-01-29T00:26:15;101176.47;;;-1.16;66.09
12594;BME280;6362;50.208;9.182;2023-01-29T00:28:41;101175.59;;;-1.16;66.13
12594;BME280;6362;50.208;9.182;2023-01-29T00:31:18;101177.34;;;-1.15;66.49
12594;BME280;6362;50.208;9.182;2023-01-29T00:33:44;101180.88;;;-1.13;66.11
12594;BME280;6362;50.208;9.182;2023-01-29T00:36:12;101189.84;;;-1.20;65.05
12594;BME280;6362;50.208;9.182;2023-01-29T00:38:37;101189.75;;;-1.21;65.40
12594;BME280;6362;50.208;9.182;2023-01-29T00:41:07;101193.97;;;-1.22;65.51
12594;BME280;6362;50.208;9.182;2023-01-29T00:43:52;101182.09;;;-1.21;65.35
12594;BME280;6362;50.208;9.182;2023-01-29T00:46:36;101175.19;;;-1.22;65.68
12594;BME280;6362;50.208;9.182;2023-01-29T00:49:02;101186.31;;;-1.22;65.63
12594;BME280;6362;50.208;9.182;2023-01-29T00:51:27;101166.06;;;-1.19;65.35
12594;BME280;6362;50.208;9.182;2023-01-29T00:53:53;101165.09;;;-1.21;65.35
12594;BME280;6362;50.208;9.182;2023-01-29T00:56:23;101157.34;;;-1.22;65.74
12594;BME280;6362;50.208;9.182;2023-01-29T00:58:49;101152.22;;;-1.22;65.39
12594;BME280;6362;50.208;9.182;2023-01-29T01:01:14;101147.03;;;-1.24;65.45
12594;BME280;6362;50.208;9.182;2023-01-29T01:03:39;101149.31;;;-1.28;65.16
12594;BME280;6362;50.208;9.182;2023-01-29T01:06:09;101150.13;;;-1.29;65.81
12594;BME280;6362;50.208;9.182;2023-01-29T01:08:35;101145.88;;;-1.29;66.04
12594;BME280;6362;50.208;9.182;2023-01-29T01:11:19;101148.44;;;-1.29;65.50
12594;BME280;6362;50.208;9.182;2023-01-29T01:13:45;101150.19;;;-1.28;65.70
12594;BME280;6362;50.208;9.182;2023-01-29T01:16:12;101145.22;;;-1.26;65.69
12594;BME280;6362;50.208;9.182;2023-01-29T01:18:38;101138.94;;;-1.31;65.45
12594;BME280;6362;50.208;9.182;2023-01-29T01:21:04;101138.94;;;-1.31;65.51
12594;BME280;6362;50.208;9.182;2023-01-29T01:23:29;101140.63;;;-1.32;65.25
12594;BME280;6362;50.208;9.182;2023-01-29T01:25:55;101138.06;;;-1.32;65.99
12594;BME280;6362;50.208;9.182;2023-01-29T01:28:20;101127.88;;;-1.32;65.84
12594;BME280;6362;50.208;9.182;2023-01-29T01:30:45;101138.94;;;-1.31;66.10
12594;BME280;6362;50.208;9.182;2023-01-29T01:33:11;101133.75;;;-1.33;65.73
12594;BME280;6362;50.208;9.182;2023-01-29T01:35:37;101131.22;;;-1.33;65.72
12594;BME280;6362;50.208;9.182;2023-01-29T01:38:03;101135.59;;;-1.30;65.96
12594;BME280;6362;50.208;9.182;2023-01-29T01:40:29;101126.47;;;-1.12;64.56
12594;BME280;6362;50.208;9.182;2023-01-29T01:42:59;101112.22;;;-0.94;64.05
12594;BME280;6362;50.208;9.182;2023-01-29T01:45:33;101119.16;;;-0.91;63.97
12594;BME280;6362;50.208;9.182;2023-01-29T01:53:09;101113.94;;;-1.22;63.97
12594;BME280;6362;50.208;9.182;2023-01-29T01:55:49;101114.03;;;-1.36;64.78
12594;BME280;6362;50.208;9.182;2023-01-29T01:58:23;101104.53;;;-1.38;65.21
12594;BME280;6362;50.208;9.182;2023-01-29T02:00:50;101096.59;;;-1.43;65.72
12594;BME280;6362;50.208;9.182;2023-01-29T02:03:18;101097.28;;;-1.45;65.36
12594;BME280;6362;50.208;9.182;2023-01-29T02:06:04;101102.22;;;-1.48;65.48
12594;BME280;6362;50.208;9.182;2023-01-29T02:11:32;101092.81;;;-1.49;65.81
12594;BME280;6362;50.208;9.182;2023-01-29T02:13:58;101086.94;;;-1.48;65.71
12594;BME280;6362;50.208;9.182;2023-01-29T02:16:23;101085.53;;;-1.43;65.67
12594;BME280;6362;50.208;9.182;2023-01-29T02:18:49;101091.03;;;-1.50;65.54
12594;BME280;6362;50.208;9.182;2023-01-29T02:27:08;101104.81;;;-1.62;66.41
12594;BME280;6362;50.208;9.182;2023-01-29T02:32:51;101118.97;;;-1.67;66.87
12594;BME280;6362;50.208;9.182;2023-01-29T02:35:38;101124.97;;;-1.66;67.25
12594;BME280;6362;50.208;9.182;2023-01-29T02:38:11;101122.41;;;-1.66;67.60
12594;BME280;6362;50.208;9.182;2023-01-29T02:45:59;101131.91;;;-1.64;67.50
12594;BME280;6362;50.208;9.182;2023-01-29T02:48:28;101137.22;;;-1.61;67.61
12594;BME280;6362;50.208;9.182;2023-01-29T02:51:04;101147.50;;;-1.59;67.57
12594;BME280;6362;50.208;9.182;2023-01-29T02:56:05;101146.69;;;-1.58;67.83
12594;BME280;6362;50.208;9.182;2023-01-29T02:58:38;101152.88;;;-1.54;68.47
12594;BME280;6362;50.208;9.182;2023-01-29T03:01:11;101149.69;;;-1.50;68.58
12594;BME280;6362;50.208;9.182;2023-01-29T03:03:44;101149.81;;;-1.49;68.33
12594;BME280;6362;50.208;9.182;2023-01-29T03:08:46;101140.22;;;-1.53;68.39
12594;BME280;6362;50.208;9.182;2023-01-29T03:11:15;101143.66;;;-1.52;68.41
12594;BME280;6362;50.208;9.182;2023-01-29T03:14:06;101135.81;;;-1.55;67.49
12594;BME280;6362;50.208;9.182;2023-01-29T03:16:38;101130.72;;;-1.55;67.88
12594;BME280;6362;50.208;9.182;2023-01-29T03:19:11;101128.84;;;-1.58;67.73
12594;BME280;6362;50.208;9.182;2023-01-29T03:21:50;101130.59;;;-1.57;67.79
12594;BME280;6362;50.208;9.182;2023-01-29T03:27:15;101129.72;;;-1.57;67.66
12594;BME280;6362;50.208;9.182;2023-01-29T03:30:03;101135.53;;;-1.60;67.63
12594;BME280;6362;50.208;9.182;2023-01-29T03:32:49;101136.13;;;-1.64;67.22
12594;BME280;6362;50.208;9.182;2023-01-29T03:35:20;101143.19;;;-1.60;67.28
12594;BME280;6362;50.208;9.182;2023-01-29T03:38:02;101142.13;;;-1.64;67.34
12594;BME280;6362;50.208;9.182;2023-01-29T03:40:43;101131.91;;;-1.64;67.02
12594;BME280;6362;50.208;9.182;2023-01-29T03:48:32;101132.63;;;-1.66;66.48
12594;BME280;6362;50.208;9.182;2023-01-29T03:51:05;101135.19;;;-1.66;66.66
12594;BME280;6362;50.208;9.182;2023-01-29T03:53:40;101124.78;;;-1.69;66.46
12594;BME280;6362;50.208;9.182;2023-01-29T03:56:20;101120.38;;;-1.72;66.31
12594;BME280;6362;50.208;9.182;2023-01-29T03:59:00;101135.56;;;-1.73;66.50
12594;BME280;6362;50.208;9.182;2023-01-29T04:01:36;101133.91;;;-1.73;66.80
12594;BME280;6362;50.208;9.182;2023-01-29T04:04:12;101140.59;;;-1.75;66.59
12594;BME280;6362;50.208;9.182;2023-01-29T04:06:41;101142.94;;;-1.78;68.36
12594;BME280;6362;50.208;9.182;2023-01-29T04:09:15;101141.28;;;-1.77;67.65
12594;BME280;6362;50.208;9.182;2023-01-29T04:11:56;101136.06;;;-1.79;68.98
12594;BME280;6362;50.208;9.182;2023-01-29T04:14:24;101128.34;;;-1.80;68.78
12594;BME280;6362;50.208;9.182;2023-01-29T04:16:56;101124.91;;;-1.81;69.19
12594;BME280;6362;50.208;9.182;2023-01-29T04:19:22;101134.03;;;-1.84;69.29
12594;BME280;6362;50.208;9.182;2023-01-29T04:21:49;101129.63;;;-1.87;69.33
12594;BME280;6362;50.208;9.182;2023-01-29T04:24:21;101122.66;;;-1.90;70.42
12594;BME280;6362;50.208;9.182;2023-01-29T04:27:16;101102.28;;;-1.90;70.69
12594;BME280;6362;50.208;9.182;2023-01-29T04:32:44;101106.91;;;-1.97;70.42
12594;BME280;6362;50.208;9.182;2023-01-29T04:38:25;101098.59;;;-2.08;70.62
12594;BME280;6362;50.208;9.182;2023-01-29T04:43:43;101100.69;;;-2.16;71.34
12594;BME280;6362;50.208;9.182;2023-01-29T04:49:28;101111.78;;;-2.28;72.11
12594;BME280;6362;50.208;9.182;2023-01-29T04:52:11;101119.22;;;-2.31;72.59
12594;BME280;6362;50.208;9.182;2023-01-29T04:57:19;101129.72;;;-2.40;72.81
12594;BME280;6362;50.208;9.182;2023-01-29T04:59:56;101137.25;;;-2.42;72.92
12594;BME280;6362;50.208;9.182;2023-01-29T05:02:25;101126.28;;;-2.41;72.88
12594;BME280;6362;50.208;9.182;2023-01-29T05:04:53;101120.41;;;-2.40;72.53
12594;BME280;6362;50.208;9.182;2023-01-29T05:07:20;101124.53;;;-2.42;72.51
12594;BME280;6362;50.208;9.182;2023-01-29T05:09:48;101124.75;;;-2.38;72.81
12594;BME280;6362;50.208;9.182;2023-01-29T05:12:16;101107.66;;;-2.40;73.00
12594;BME280;6362;50.208;9.182;2023-01-29T05:14:43;101113.63;;;-2.39;72.66
12594;BME280;6362;50.208;9.182;2023-01-29T05:17:17;101106.91;;;-2.38;73.08
12594;BME280;6362;50.208;9.182;2023-01-29T05:19:47;101104.44;;;-2.37;72.61
12594;BME280;6362;50.208;9.182;2023-01-29T05:22:15;101101.81;;;-2.38;72.71
12594;BME280;6362;50.208;9.182;2023-01-29T05:24:42;101097.69;;;-2.36;72.56
12594;BME280;6362;50.208;9.182;2023-01-29T05:27:16;101094.94;;;-2.40;72.78
12594;BME280;6362;50.208;9.182;2023-01-29T05:30:01;101092.28;;;-2.41;73.17
12594;BME280;6362;50.208;9.182;2023-01-29T05:32:26;101089.06;;;-2.38;73.19
12594;BME280;6362;50.208;9.182;2023-01-29T05:34:51;101080.31;;;-2.29;72.47
12594;BME280;6362;50.208;9.182;2023-01-29T05:37:17;101094.81;;;-2.28;71.83
12594;BME280;6362;50.208;9.182;2023-01-29T05:39:42;101098.94;;;-2.30;71.94
12594;BME280;6362;50.208;9.182;2023-01-29T05:42:09;101105.69;;;-2.30;71.81
12594;BME280;6362;50.208;9.182;2023-01-29T05:44:35;101112.56;;;-2.29;71.96
12594;BME280;6362;50.208;9.182;2023-01-29T05:47:00;101101.56;;;-2.28;72.34
12594;BME280;6362;50.208;9.182;2023-01-29T05:49:27;101114.44;;;-2.27;72.94
12594;BME280;6362;50.208;9.182;2023-01-29T05:51:53;101106.00;;;-2.26;72.89
12594;BME280;6362;50.208;9.182;2023-01-29T05:54:18;101111.94;;;-2.12;71.68
12594;BME280;6362;50.208;9.182;2023-01-29T05:56:44;101118.06;;;-1.95;70.91
12594;BME280;6362;50.208;9.182;2023-01-29T05:59:09;101114.69;;;-2.09;70.82
12594;BME280;6362;50.208;9.182;2023-01-29T06:01:35;101114.91;;;-2.19;70.99
12594;BME280;6362;50.208;9.182;2023-01-29T06:04:00;101113.16;;;-2.20;71.96
12594;BME280;6362;50.208;9.182;2023-01-29T06:06:26;101124.78;;;-2.24;72.01
12594;BME280;6362;50.208;9.182;2023-01-29T06:08:51;101113.94;;;-2.21;73.17
12594;BME280;6362;50.208;9.182;2023-01-29T06:11:17;101112.34;;;-2.19;73.58
12594;BME280;6362;50.208;9.182;2023-01-29T06:13:43;101113.31;;;-2.17;73.90
12594;BME280;6362;50.208;9.182;2023-01-29T06:16:11;101113.31;;;-2.17;73.62
12594;BME280;6362;50.208;9.182;2023-01-29T06:18:38;101100.41;;;-2.20;73.56
12594;BME280;6362;50.208;9.182;2023-01-29T06:21:06;101102.06;;;-2.21;73.43
12594;BME280;6362;50.208;9.182;2023-01-29T06:23:32;101087.38;;;-2.25;73.40
12594;BME280;6362;50.208;9.182;2023-01-29T06:26:07;101084.91;;;-2.23;73.66
12594;BME280;6362;50.208;9.182;2023-01-29T06:28:33;101095.97;;;-2.23;73.89
12594;BME280;6362;50.208;9.182;2023-01-29T06:31:01;101106.88;;;-2.25;73.39
12594;BME280;6362;50.208;9.182;2023-01-29T06:33:27;101097.47;;;-2.26;73.20
12594;BME280;6362;50.208;9.182;2023-01-29T06:36:00;101091.13;;;-1.92;71.01
12594;BME280;6362;50.208;9.182;2023-01-29T06:38:27;101093.88;;;-1.89;69.69
12594;BME280;6362;50.208;9.182;2023-01-29T06:40:53;101085.34;;;-2.02;70.43
12594;BME280;6362;50.208;9.182;2023-01-29T06:43:20;101081.22;;;-2.00;70.42
12594;BME280;6362;50.208;9.182;2023-01-29T06:45:51;101089.50;;;-2.04;70.42
12594;BME280;6362;50.208;9.182;2023-01-29T06:48:17;101094.47;;;-2.06;70.71
12594;BME280;6362;50.208;9.182;2023-01-29T06:50:43;101090.09;;;-2.08;70.69
12594;BME280;6362;50.208;9.182;2023-01-29T06:53:09;101089.56;;;-2.03;70.81
12594;BME280;6362;50.208;9.182;2023-01-29T06:55:34;101097.78;;;-1.94;70.88
12594;BME280;6362;50.208;9.182;2023-01-29T06:58:12;101104.75;;;-1.91;70.64
12594;BME280;6362;50.208;9.182;2023-01-29T07:00:38;101108.50;;;-1.99;70.88
12594;BME280;6362;50.208;9.182;2023-01-29T07:03:03;101112.81;;;-1.98;70.22
12594;BME280;6362;50.208;9.182;2023-01-29T07:05:29;101120.66;;;-2.08;70.80
12594;BME280;6362;50.208;9.182;2023-01-29T07:07:55;101133.13;;;-2.13;71.96
12594;BME280;6362;50.208;9.182;2023-01-29T07:10:21;101134.69;;;-2.15;72.13
12594;BME280;6362;50.208;9.182;2023-01-29T07:12:47;101126.06;;;-2.17;72.48
12594;BME280;6362;50.208;9.182;2023-01-29T07:15:13;101134.56;;;-2.17;72.79
12594;BME280;6362;50.208;9.182;2023-01-29T07:17:39;101133.81;;;-2.16;72.61
12594;BME280;6362;50.208;9.182;2023-01-29T07:20:05;101134.00;;;-2.13;72.92
12594;BME280;6362;50.208;9.182;2023-01-29T07:22:31;101132.31;;;-2.12;72.56
12594;BME280;6362;50.208;9.182;2023-01-29T07:24:56;101128.41;;;-2.07;72.49
12594;BME280;6362;50.208;9.182;2023-01-29T07:27:22;101129.97;;;-2.09;71.65
12594;BME280;6362;50.208;9.182;2023-01-29T07:29:47;101136.16;;;-2.05;72.16
12594;BME280;6362;50.208;9.182;2023-01-29T07:32:13;101128.69;;;-2.02;72.39
12594;BME280;6362;50.208;9.182;2023-01-29T07:34:38;101122.91;;;-2.00;72.56
12594;BME280;6362;50.208;9.182;2023-01-29T07:37:04;101123.28;;;-1.94;72.96
12594;BME280;6362;50.208;9.182;2023-01-29T07:39:31;101132.88;;;-1.90;72.92
12594;BME280;6362;50.208;9.182;2023-01-29T07:41:56;101129.19;;;0.12;88.20
12594;BME280;6362;50.208;9.182;2023-01-29T07:44:22;101128.13;;;-0.22;79.30
12594;BME280;6362;50.208;9.182;2023-01-29T07:46:52;101122.91;;;-0.09;73.51
12594;BME280;6362;50.208;9.182;2023-01-29T07:52:45;101112.41;;;0.01;66.81
12594;BME280;6362;50.208;9.182;2023-01-29T07:55:10;101103.44;;;0.25;69.13
12594;BME280;6362;50.208;9.182;2023-01-29T07:57:36;101109.06;;;0.18;65.45
12594;BME280;6362;50.208;9.182;2023-01-29T08:00:01;101119.63;;;-0.07;63.96
12594;BME280;6362;50.208;9.182;2023-01-29T08:02:27;101123.75;;;-0.25;64.36
12594;BME280;6362;50.208;9.182;2023-01-29T08:04:52;101134.09;;;-0.38;65.19
12594;BME280;6362;50.208;9.182;2023-01-29T08:07:17;101128.94;;;-0.55;64.40
12594;BME280;6362;50.208;9.182;2023-01-29T08:09:43;101138.19;;;-0.71;64.06
12594;BME280;6362;50.208;9.182;2023-01-29T08:12:08;101140.03;;;-0.84;64.22
12594;BME280;6362;50.208;9.182;2023-01-29T08:14:34;101158.63;;;-0.86;64.25
12594;BME280;6362;50.208;9.182;2023-01-29T08:16:59;101153.59;;;-0.85;65.00
12594;BME280;6362;50.208;9.182;2023-01-29T08:19:25;101143.50;;;-0.83;65.21
12594;BME280;6362;50.208;9.182;2023-01-29T08:21:50;101135.72;;;-0.85;64.66
12594;BME280;6362;50.208;9.182;2023-01-29T08:24:16;101121.81;;;-0.75;65.01
12594;BME280;6362;50.208;9.182;2023-01-29T08:26:41;101114.22;;;-0.73;64.51
12594;BME280;6362;50.208;9.182;2023-01-29T08:29:06;101114.63;;;-0.51;63.10
12594;BME280;6362;50.208;9.182;2023-01-29T08:31:32;101108.03;;;-0.62;63.74
12594;BME280;6362;50.208;9.182;2023-01-29T08:33:57;101104.72;;;-0.76;63.96
12594;BME280;6362;50.208;9.182;2023-01-29T08:36:23;101113.53;;;-0.71;64.68
12594;BME280;6362;50.208;9.182;2023-01-29T08:38:49;101117.31;;;-0.79;64.38
12594;BME280;6362;50.208;9.182;2023-01-29T08:41:14;101128.53;;;-0.77;65.28
12594;BME280;6362;50.208;9.182;2023-01-29T08:43:40;101127.53;;;-0.79;66.03
12594;BME280;6362;50.208;9.182;2023-01-29T08:46:06;101127.63;;;-0.92;64.63
12594;BME280;6362;50.208;9.182;2023-01-29T08:48:33;101131.84;;;-0.93;64.25
12594;BME280;6362;50.208;9.182;2023-01-29T08:51:00;101113.91;;;-0.94;64.90
12594;BME280;6362;50.208;9.182;2023-01-29T08:53:26;101110.78;;;-0.74;64.72
12594;BME280;6362;50.208;9.182;2023-01-29T08:55:52;101112.59;;;-0.88;63.65
12594;BME280;6362;50.208;9.182;2023-01-29T08:58:18;101128.69;;;-0.89;63.44
12594;BME280;6362;50.208;9.182;2023-01-29T09:00:44;101138.44;;;-0.96;64.10
12594;BME280;6362;50.208;9.182;2023-01-29T09:03:10;101143.41;;;-0.99;64.44
12594;BME280;6362;50.208;9.182;2023-01-29T09:05:37;101155.69;;;-1.07;64.39
12594;BME280;6362;50.208;9.182;2023-01-29T09:08:04;101159.31;;;-1.03;64.51
12594;BME280;6362;50.208;9.182;2023-01-29T09:10:30;101155.63;;;-1.09;64.69
12594;BME280;6362;50.208;9.182;2023-01-29T09:12:55;101171.81;;;-1.08;64.73
12594;BME280;6362;50.208;9.182;2023-01-29T09:15:21;101171.09;;;-1.06;64.75
12594;BME280;6362;50.208;9.182;2023-01-29T09:17:46;101180.25;;;-1.09;64.79
12594;BME280;6362;50.208;9.182;2023-01-29T09:20:14;101198.06;;;-1.11;66.14
12594;BME280;6362;50.208;9.182;2023-01-29T09:22:39;101201.47;;;-1.10;66.11
12594;BME280;6362;50.208;9.182;2023-01-29T09:25:05;101185.44;;;-1.08;66.02
12594;BME280;6362;50.208;9.182;2023-01-29T09:27:31;101200.59;;;-1.11;66.20
12594;BME280;6362;50.208;9.182;2023-01-29T09:29:57;101190.84;;;-1.03;66.69
12594;BME280;6362;50.208;9.182;2023-01-29T09:32:22;101187.69;;;-0.99;66.20
12594;BME280;6362;50.208;9.182;2023-01-29T09:34:47;101190.59;;;-0.93;66.14
12594;BME280;6362;50.208;9.182;2023-01-29T09:37:19;101196.38;;;-0.95;65.55
12594;BME280;6362;50.208;9.182;2023-01-29T09:40:07;101188.38;;;-0.87;65.51
12594;BME280;6362;50.208;9.182;2023-01-29T09:42:49;101189.00;;;-0.91;65.08
12594;BME280;6362;50.208;9.182;2023-01-29T09:45:24;101182.22;;;-0.90;65.20
12594;BME280;6362;50.208;9.182;2023-01-29T09:47:52;101189.34;;;-0.85;65.83
12594;BME280;6362;50.208;9.182;2023-01-29T09:50:40;101184.09;;;-0.88;64.92
12594;BME280;6362;50.208;9.182;2023-01-29T09:55:53;101188.47;;;-0.85;65.48
12594;BME280;6362;50.208;9.182;2023-01-29T09:58:35;101187.25;;;-0.77;65.21
12594;BME280;6362;50.208;9.182;2023-01-29T10:01:22;101182.84;;;-0.80;64.78
12594;BME280;6362;50.208;9.182;2023-01-29T10:18:03;101135.25;;;-0.33;62.61
12594;BME280;6362;50.208;9.182;2023-01-29T10:24:10;101112.03;;;-0.21;61.35
12594;BME280;6362;50.208;9.182;2023-01-29T10:26:40;101110.84;;;-0.12;61.86
12594;BME280;6362;50.208;9.182;2023-01-29T10:29:06;101112.16;;;-0.04;60.41
12594;BME280;6362;50.208;9.182;2023-01-29T10:31:36;101105.66;;;0.03;60.62
12594;BME280;6362;50.208;9.182;2023-01-29T10:34:29;101114.94;;;0.01;60.97
12594;BME280;6362;50.208;9.182;2023-01-29T10:36:58;101120.06;;;0.01;61.25
12594;BME280;6362;50.208;9.182;2023-01-29T10:39:25;101113.25;;;-0.15;60.87
12594;BME280;6362;50.208;9.182;2023-01-29T10:42:00;101102.84;;;-0.18;61.18
12594;BME280;6362;50.208;9.182;2023-01-29T10:44:47;101098.03;;;-0.12;63.57
12594;BME280;6362;50.208;9.182;2023-01-29T10:47:39;101096.72;;;-0.05;63.79
12594;BME280;6362;50.208;9.182;2023-01-29T10:50:11;101092.78;;;-0.15;63.17
12594;BME280;6362;50.208;9.182;2023-01-29T10:58:14;101090.31;;;-0.13;61.38
12594;BME280;6362;50.208;9.182;2023-01-29T11:00:42;101081.53;;;-0.02;61.67
12594;BME280;6362;50.208;9.182;2023-01-29T11:03:25;101079.38;;;0.22;61.67
12594;BME280;6362;50.208;9.182;2023-01-29T11:05:57;101060.34;;;0.33;61.58
12594;BME280;6362;50.208;9.182;2023-01-29T11:08:30;101057.53;;;0.61;59.59
12594;BME280;6362;50.208;9.182;2023-01-29T11:16:07;101040.91;;;0.53;59.52
12594;BME280;6362;50.208;9.182;2023-01-29T11:18:54;101026.66;;;0.58;60.08
12594;BME280;6362;50.208;9.182;2023-01-29T11:21:21;101021.06;;;0.49;59.40
12594;BME280;6362;50.208;9.182;2023-01-29T11:23:47;101024.84;;;0.56;59.33
12594;BME280;6362;50.208;9.182;2023-01-29T11:26:21;101025.69;;;0.72;58.37
12594;BME280;6362;50.208;9.182;2023-01-29T11:28:49;101015.94;;;0.83;58.57
12594;BME280;6362;50.208;9.182;2023-01-29T11:31:20;101005.84;;;0.86;58.83
12594;BME280;6362;50.208;9.182;2023-01-29T11:33:46;101020.28;;;0.84;58.84
12594;BME280;6362;50.208;9.182;2023-01-29T11:38:45;101012.91;;;0.90;58.17
12594;BME280;6362;50.208;9.182;2023-01-29T11:41:15;101013.06;;;1.11;57.90
12594;BME280;6362;50.208;9.182;2023-01-29T11:43:42;101008.78;;;1.29;56.84
12594;BME280;6362;50.208;9.182;2023-01-29T11:46:13;101000.53;;;1.17;57.88
12594;BME280;6362;50.208;9.182;2023-01-29T11:48:43;101000.88;;;1.25;57.47
12594;BME280;6362;50.208;9.182;2023-01-29T11:51:11;100994.06;;;1.25;56.50
12594;BME280;6362;50.208;9.182;2023-01-29T11:53:50;100985.78;;;1.31;57.46
12594;BME280;6362;50.208;9.182;2023-01-29T11:56:28;100979.78;;;1.68;56.67
12594;BME280;6362;50.208;9.182;2023-01-29T11:58:57;100974.06;;;1.36;56.52
12594;BME280;6362;50.208;9.182;2023-01-29T12:01:35;100976.66;;;1.18;58.15
12594;BME280;6362;50.208;9.182;2023-01-29T12:04:03;100973.16;;;0.98;58.27
12594;BME280;6362;50.208;9.182;2023-01-29T12:06:41;100968.50;;;1.27;57.62
12594;BME280;6362;50.208;9.182;2023-01-29T12:09:10;100960.09;;;2.26;56.09
12594;BME280;6362;50.208;9.182;2023-01-29T12:11:38;100961.66;;;2.84;53.78
12594;BME280;6362;50.208;9.182;2023-01-29T12:14:25;100956.78;;;3.12;51.43
12594;BME280;6362;50.208;9.182;2023-01-29T12:16:57;100956.97;;;3.39;51.78
12594;BME280;6362;50.208;9.182;2023-01-29T12:19:44;100942.03;;;3.53;51.15
12594;BME280;6362;50.208;9.182;2023-01-29T12:25:06;100951.00;;;4.36;49.87
12594;BME280;6362;50.208;9.182;2023-01-29T12:27:47;100947.63;;;4.64;47.89
12594;BME280;6362;50.208;9.182;2023-01-29T12:30:26;100938.84;;;4.85;48.08
12594;BME280;6362;50.208;9.182;2023-01-29T12:35:26;100927.09;;;4.40;47.22
12594;BME280;6362;50.208;9.182;2023-01-29T12:38:03;100917.00;;;4.46;47.99
12594;BME280;6362;50.208;9.182;2023-01-29T12:40:39;100915.94;;;3.90;49.36
12594;BME280;6362;50.208;9.182;2023-01-29T12:43:14;100904.31;;;3.54;50.05
12594;BME280;6362;50.208;9.182;2023-01-29T12:45:41;100905.06;;;3.27;51.02
12594;BME280;6362;50.208;9.182;2023-01-29T12:48:31;100899.81;;;3.02;51.73
12594;BME280;6362;50.208;9.182;2023-01-29T12:51:02;100894.97;;;2.87;52.26
12594;BME280;6362;50.208;9.182;2023-01-29T12:53:39;100896.06;;;2.94;52.19
12594;BME280;6362;50.208;9.182;2023-01-29T12:56:30;100885.66;;;2.68;52.74
12594;BME280;6362;50.208;9.182;2023-01-29T12:58:59;100874.72;;;2.51;53.26
12594;BME280;6362;50.208;9.182;2023-01-29T13:01:37;100873.72;;;2.48;53.74
12594;BME280;6362;50.208;9.182;2023-01-29T13:04:13;100871.84;;;2.02;54.23
12594;BME280;6362;50.208;9.182;2023-01-29T13:07:13;100873.69;;;1.85;55.16
12594;BME280;6362;50.208;9.182;2023-01-29T13:09:42;100868.78;;;1.70;55.90
12594;BME280;6362;50.208;9.182;2023-01-29T13:12:13;100861.28;;;1.75;56.30
12594;BME280;6362;50.208;9.182;2023-01-29T13:15:03;100861.59;;;1.82;55.56
12594;BME280;6362;50.208;9.182;2023-01-29T13:17:36;100856.72;;;2.29;55.30
12594;BME280;6362;50.208;9.182;2023-01-29T13:20:22;100858.25;;;2.89;53.12
12594;BME280;6362;50.208;9.182;2023-01-29T13:22:49;100860.81;;;3.12;51.50
12594;BME280;6362;50.208;9.182;2023-01-29T13:25:18;100855.66;;;3.34;51.11
12594;BME280;6362;50.208;9.182;2023-01-29T13:27:44;100857.78;;;3.46;50.55
12594;BME280;6362;50.208;9.182;2023-01-29T13:32:51;100852.94;;;3.55;50.95
12594;BME280;6362;50.208;9.182;2023-01-29T13:35:20;100858.81;;;4.26;49.11
12594;BME280;6362;50.208;9.182;2023-01-29T13:37:49;100848.59;;;5.12;46.84
12594;BME280;6362;50.208;9.182;2023-01-29T13:42:47;100845.09;;;7.14;41.77
12594;BME280;6362;50.208;9.182;2023-01-29T13:45:35;100844.97;;;7.51;40.69
12594;BME280;6362;50.208;9.182;2023-01-29T13:48:20;100844.47;;;8.17;39.42
12594;BME280;6362;50.208;9.182;2023-01-29T13:50:49;100840.75;;;8.53;38.54
12594;BME280;6362;50.208;9.182;2023-01-29T13:53:36;100841.16;;;9.47;37.34
12594;BME280;6362;50.208;9.182;2023-01-29T13:58:58;100830.50;;;9.25;36.33
12594;BME280;6362;50.208;9.182;2023-01-29T14:04:25;100831.59;;;7.73;39.89
12594;BME280;6362;50.208;9.182;2023-01-29T14:06:55;100830.75;;;7.29;40.44
12594;BME280;6362;50.208;9.182;2023-01-29T14:17:20;100819.94;;;7.97;39.38
12594;BME280;6362;50.208;9.182;2023-01-29T14:19:52;100825.47;;;8.18;38.68
12594;BME280;6362;50.208;9.182;2023-01-29T14:22:21;100807.59;;;8.35;39.02
12594;BME280;6362;50.208;9.182;2023-01-29T14:24:48;100812.97;;;7.47;39.84
12594;BME280;6362;50.208;9.182;2023-01-29T14:27:20;100806.91;;;7.45;40.31
12594;BME280;6362;50.208;9.182;2023-01-29T14:29:46;100796.72;;;8.03;39.35
12594;BME280;6362;50.208;9.182;2023-01-29T14:32:22;100794.09;;;8.01;39.32
12594;BME280;6362;50.208;9.182;2023-01-29T14:35:24;100791.56;;;8.04;38.92
12594;BME280;6362;50.208;9.182;2023-01-29T14:37:57;100785.94;;;8.30;38.64
12594;BME280;6362;50.208;9.182;2023-01-29T14:40:25;100782.09;;;8.61;38.17
12594;BME280;6362;50.208;9.182;2023-01-29T14:43:15;100788.03;;;8.52;37.87
12594;BME280;6362;50.208;9.182;2023-01-29T14:45:46;100789.63;;;9.06;37.30
12594;BME280;6362;50.208;9.182;2023-01-29T14:48:48;100785.03;;;8.85;37.49
12594;BME280;6362;50.208;9.182;2023-01-29T14:51:15;100783.91;;;9.36;36.29
12594;BME280;6362;50.208;9.182;2023-01-29T14:56:33;100792.19;;;9.84;35.49
12594;BME280;6362;50.208;9.182;2023-01-29T15:01:38;100783.34;;;9.65;35.69
12594;BME280;6362;50.208;9.182;2023-01-29T15:04:17;100785.22;;;9.01;36.89
12594;BME280;6362;50.208;9.182;2023-01-29T15:07:00;100783.25;;;7.72;38.75
12594;BME280;6362;50.208;9.182;2023-01-29T15:12:37;100778.22;;;4.86;45.18
12594;BME280;6362;50.208;9.182;2023-01-29T15:15:34;100784.44;;;4.08;47.65
12594;BME280;6362;50.208;9.182;2023-01-29T15:20:33;100776.78;;;2.87;52.18
12594;BME280;6362;50.208;9.182;2023-01-29T15:22:59;100783.00;;;2.47;53.40
12594;BME280;6362;50.208;9.182;2023-01-29T15:25:31;100777.22;;;2.09;54.50